createdAt,value
2022-09-10T00:01:52.618Z,1.20
2022-09-10T00:06:51.495Z,2.05
2022-09-10T00:11:52.204Z,1.58
2022-09-10T00:16:51.973Z,1.45
2022-09-10T00:21:51.685Z,1.92
2022-09-10T00:26:52.459Z,1.70
2022-09-10T00:31:51.926Z,1.67
2022-09-10T00:36:50.878Z,1.60
2022-09-10T00:41:52.666Z,1.45
2022-09-10T00:51:53.949Z,1.20
2022-09-10T00:56:58.541Z,1.50
2022-09-10T01:01:59.777Z,1.40
2022-09-10T01:06:58.709Z,1.85
2022-09-10T01:12:19.843Z,1.27
2022-09-10T01:17:28.241Z,1.10
2022-09-10T01:22:37.008Z,1.40
2022-09-10T01:27:45.818Z,1.20
2022-09-10T01:33:07.472Z,1.42
2022-09-10T01:38:15.358Z,1.42
2022-09-10T01:43:16.205Z,1.50
2022-09-10T01:48:43.821Z,1.40
2022-09-10T01:54:00.240Z,1.20
2022-09-10T01:59:05.334Z,1.85
2022-09-10T02:04:15.350Z,1.40
2022-09-10T02:09:17.017Z,1.45
2022-09-10T02:14:18.665Z,1.45
2022-09-10T02:19:36.115Z,1.58
2022-09-10T02:24:35.061Z,1.30
2022-09-10T02:29:35.650Z,2.03
2022-09-10T02:34:36.342Z,1.42
2022-09-10T02:39:35.820Z,1.67
2022-09-10T02:44:36.781Z,1.55
2022-09-10T02:49:35.885Z,1.67
2022-09-10T02:54:34.935Z,1.63
2022-09-10T02:59:35.302Z,1.55
2022-09-10T03:04:34.460Z,1.83
2022-09-10T03:09:35.828Z,1.70
2022-09-10T03:14:36.224Z,2.42
2022-09-10T03:19:35.232Z,3.83
2022-09-10T03:24:34.253Z,2.05
2022-09-10T03:29:33.568Z,1.52
2022-09-10T03:34:34.495Z,1.85
2022-09-10T03:39:33.690Z,2.00
2022-09-10T03:44:33.660Z,1.90
2022-09-10T03:49:34.133Z,1.50
2022-09-10T03:54:33.264Z,1.92
2022-09-10T03:59:32.732Z,1.77
2022-09-10T04:04:37.123Z,1.70
2022-09-10T04:09:36.181Z,1.80
2022-09-10T04:14:35.580Z,1.92
2022-09-10T04:19:36.946Z,1.40
2022-09-10T04:24:38.911Z,2.97
2022-09-10T04:29:39.475Z,3.20
2022-09-10T04:34:40.205Z,2.13
2022-09-10T04:39:40.427Z,2.30
2022-09-10T04:44:39.681Z,2.08
2022-09-10T04:49:42.532Z,2.03
2022-09-10T04:54:45.696Z,3.33
2022-09-10T04:59:45.314Z,2.75
2022-09-10T05:04:47.691Z,3.15
2022-09-10T05:09:48.578Z,3.05
2022-09-10T05:14:49.430Z,2.65
2022-09-10T05:19:50.206Z,1.90
2022-09-10T05:24:51.643Z,2.05
2022-09-10T05:29:50.720Z,2.95
2022-09-10T05:34:51.474Z,2.90
2022-09-10T05:39:50.904Z,2.35
2022-09-10T05:44:50.776Z,2.70
2022-09-10T05:49:51.864Z,2.58
2022-09-10T05:54:52.167Z,2.40
2022-09-10T05:59:51.231Z,2.70
2022-09-10T06:04:51.985Z,3.15
2022-09-10T06:09:51.961Z,2.70
2022-09-10T06:15:04.637Z,2.40
2022-09-10T06:20:05.651Z,1.60
2022-09-10T06:25:07.735Z,1.65
2022-09-10T06:30:08.482Z,2.93
2022-09-10T06:35:13.439Z,2.78
2022-09-10T06:40:13.465Z,2.97
2022-09-10T06:45:14.311Z,2.13
2022-09-10T06:50:37.108Z,1.98
2022-09-10T06:55:36.830Z,2.17
2022-09-10T07:00:39.428Z,2.42
2022-09-10T07:05:39.961Z,2.50
2022-09-10T07:10:40.126Z,2.85
2022-09-10T07:15:45.381Z,2.42
2022-09-10T07:20:47.754Z,2.47
2022-09-10T07:25:47.878Z,3.35
2022-09-10T07:31:13.402Z,2.40
2022-09-10T07:36:14.716Z,2.47
2022-09-10T07:41:15.984Z,2.25
2022-09-10T07:46:20.483Z,2.57
2022-09-10T07:51:23.229Z,3.38
2022-09-10T07:56:24.432Z,3.33
2022-09-10T08:01:24.646Z,3.00
2022-09-10T08:06:42.467Z,2.30
2022-09-10T08:11:42.249Z,2.42
2022-09-10T08:16:49.039Z,2.92
2022-09-10T08:21:50.307Z,2.78
2022-09-10T08:26:55.985Z,2.25
2022-09-10T08:31:55.102Z,3.05
2022-09-10T08:37:00.767Z,2.88
2022-09-10T08:42:05.001Z,2.28
2022-09-10T08:47:21.104Z,2.28
2022-09-10T08:52:29.974Z,2.72
2022-09-10T08:57:36.950Z,2.22
2022-09-10T09:02:49.137Z,2.85
2022-09-10T09:07:53.329Z,2.78
2022-09-10T09:13:12.382Z,2.50
2022-09-10T09:23:25.906Z,3.28
2022-09-10T09:28:36.892Z,2.42
2022-09-10T09:33:37.425Z,2.78
2022-09-10T09:38:41.739Z,2.92
2022-09-10T09:43:57.694Z,3.40
2022-09-10T09:49:00.455Z,2.85
2022-09-10T09:59:29.510Z,3.20
2022-09-10T10:04:32.004Z,3.05
2022-09-10T10:09:41.571Z,2.67
2022-09-10T10:14:42.632Z,2.85
2022-09-10T10:19:41.608Z,3.10
2022-09-10T10:24:43.310Z,3.38
2022-09-10T10:29:42.233Z,3.63
2022-09-10T10:40:11.231Z,3.45
2022-09-10T10:45:37.255Z,4.10
2022-09-10T10:50:49.766Z,4.30
2022-09-10T10:56:02.170Z,3.53
2022-09-10T11:01:06.786Z,4.78
2022-09-10T11:06:10.645Z,4.15
2022-09-10T11:11:18.817Z,3.90
2022-09-10T11:16:22.332Z,4.17
2022-09-10T11:21:27.171Z,4.32
2022-09-10T11:26:34.897Z,4.40
2022-09-10T11:31:40.602Z,4.63
2022-09-10T11:36:45.978Z,4.82
2022-09-10T11:41:50.009Z,5.15
2022-09-10T11:46:57.795Z,4.35
2022-09-10T11:51:57.277Z,4.85
2022-09-10T11:57:03.091Z,4.72
2022-09-10T12:02:34.111Z,4.43
2022-09-10T12:07:43.700Z,5.00
2022-09-10T12:12:48.254Z,5.25
2022-09-10T12:17:55.255Z,5.22
2022-09-10T12:22:56.566Z,4.60
2022-09-10T12:28:08.305Z,5.65
2022-09-10T12:33:52.387Z,5.18
2022-09-10T12:39:17.696Z,4.40
2022-09-10T12:44:51.939Z,4.13
2022-09-10T12:49:56.065Z,5.15
2022-09-10T12:55:06.246Z,4.72
2022-09-10T13:00:23.868Z,4.82
2022-09-10T13:05:33.319Z,4.15
2022-09-10T13:10:33.156Z,4.45
2022-09-10T13:15:36.840Z,4.38
2022-09-10T13:20:37.470Z,4.30
2022-09-10T13:25:42.916Z,3.92
2022-09-10T13:30:45.693Z,5.22
2022-09-10T13:36:16.471Z,4.53
2022-09-10T13:41:44.445Z,4.20
2022-09-10T13:46:50.967Z,4.07
2022-09-10T13:51:54.639Z,3.33
2022-09-10T13:56:58.908Z,3.65
2022-09-10T14:02:44.200Z,3.42
2022-09-10T14:07:59.252Z,3.05
2022-09-10T14:13:44.601Z,4.10
2022-09-10T14:18:47.236Z,2.92
2022-09-10T14:24:34.629Z,3.47
2022-09-10T14:29:46.670Z,4.38
2022-09-10T14:34:59.293Z,4.35
2022-09-10T14:40:04.401Z,4.05
2022-09-10T14:45:04.146Z,4.70
2022-09-10T14:50:27.351Z,3.97
2022-09-10T14:55:31.279Z,4.03
2022-09-10T15:00:31.355Z,4.20
2022-09-10T15:05:31.028Z,3.95
2022-09-10T15:10:31.955Z,4.35
2022-09-10T15:15:31.497Z,3.83
2022-09-10T15:20:31.713Z,3.78
2022-09-10T15:25:38.545Z,3.90
2022-09-10T15:30:37.963Z,4.55
2022-09-10T15:35:39.228Z,4.27
2022-09-10T15:40:39.666Z,4.13
2022-09-10T15:45:40.011Z,4.00
2022-09-10T15:50:39.056Z,4.85
2022-09-10T15:55:40.970Z,4.40
2022-09-10T16:00:41.245Z,4.93
2022-09-10T16:05:42.712Z,4.45
2022-09-10T16:11:21.270Z,4.85
2022-09-10T16:16:22.484Z,5.07
2022-09-10T16:21:36.612Z,4.97
2022-09-10T16:26:52.439Z,4.43
2022-09-10T16:32:01.018Z,3.72
2022-09-10T16:37:30.049Z,3.78
2022-09-10T16:42:34.409Z,3.88
2022-09-10T16:47:41.787Z,4.50
2022-09-10T16:52:55.060Z,3.83
2022-09-10T16:58:03.100Z,3.67
2022-09-10T17:03:06.310Z,2.90
2022-09-10T17:08:09.560Z,2.85
2022-09-10T17:13:11.519Z,2.65
2022-09-10T17:18:12.376Z,2.30
2022-09-10T17:23:19.080Z,3.25
2022-09-10T17:28:29.296Z,2.35
2022-09-10T17:33:28.450Z,2.40
2022-09-10T17:38:28.522Z,3.63
2022-09-10T17:43:31.855Z,1.50
2022-09-10T17:48:31.590Z,1.80
2022-09-10T17:53:32.067Z,2.53
2022-09-10T17:58:41.944Z,2.40
2022-09-10T18:03:44.742Z,2.67
2022-09-10T18:14:32.277Z,2.13
2022-09-10T18:19:34.994Z,2.75
2022-09-10T18:24:34.978Z,2.92
2022-09-10T18:29:39.035Z,3.95
2022-09-10T18:34:40.023Z,3.05
2022-09-10T18:39:42.519Z,2.97
2022-09-10T18:44:45.057Z,3.10
2022-09-10T18:49:47.750Z,2.60
2022-09-10T19:06:27.804Z,2.92
2022-09-10T19:11:46.405Z,3.17
2022-09-10T19:16:57.547Z,2.88
2022-09-10T19:22:01.953Z,2.50
2022-09-10T19:27:06.972Z,3.28
2022-09-10T19:37:32.670Z,3.45
2022-09-10T19:42:31.536Z,3.30
2022-09-10T19:47:31.765Z,3.95
2022-09-10T19:52:32.829Z,4.05
2022-09-10T19:57:31.714Z,4.30
2022-09-10T20:02:31.939Z,4.22
2022-09-10T20:07:31.190Z,4.40
2022-09-10T20:12:30.462Z,3.47
2022-09-10T20:17:30.171Z,4.35
2022-09-10T20:22:35.737Z,4.80
2022-09-10T20:27:37.092Z,4.97
2022-09-10T20:32:35.888Z,4.43
2022-09-10T20:37:36.226Z,4.47
2022-09-10T20:42:35.239Z,4.65
2022-09-10T20:47:37.440Z,4.43
2022-09-10T20:52:38.466Z,4.63
2022-09-10T20:57:37.402Z,4.50
2022-09-10T21:02:36.999Z,4.53
2022-09-10T21:07:37.258Z,4.43
2022-09-10T21:12:36.080Z,4.22
2022-09-10T21:17:38.870Z,3.95
2022-09-10T21:22:39.084Z,3.25
2022-09-10T21:27:38.051Z,3.72
2022-09-10T21:32:37.017Z,3.90
2022-09-10T21:37:36.139Z,3.60
2022-09-10T21:42:36.622Z,3.80
2022-09-10T21:47:35.564Z,3.38
2022-09-10T21:52:34.394Z,3.33
2022-09-10T21:57:33.297Z,3.50
2022-09-10T22:02:33.634Z,3.35
2022-09-10T22:07:32.820Z,2.72
2022-09-10T22:12:31.826Z,3.00
2022-09-10T22:17:31.660Z,3.25
2022-09-10T22:22:31.909Z,3.20
2022-09-10T22:27:30.972Z,2.70
2022-09-10T22:32:31.566Z,2.90
2022-09-10T22:37:31.933Z,3.03
2022-09-10T22:42:32.161Z,3.92
2022-09-10T22:47:30.909Z,4.05
2022-09-10T22:52:34.215Z,3.72
2022-09-10T22:57:33.228Z,3.83
2022-09-10T23:02:32.169Z,4.97
2022-09-10T23:07:32.516Z,4.22
2022-09-10T23:12:31.481Z,4.68
2022-09-10T23:17:30.228Z,5.28
2022-09-10T23:22:29.097Z,4.30
2022-09-10T23:27:29.439Z,5.30
2022-09-10T23:32:28.297Z,5.22
2022-09-10T23:37:27.096Z,5.00
2022-09-10T23:42:25.999Z,5.28
2022-09-10T23:47:27.149Z,5.13
2022-09-10T23:52:27.273Z,5.17
2022-09-10T23:57:26.175Z,5.53
